Time;durP1;ratioP1;P1;durP2;ratioP2;P2;SDS_P1;SDS_P2;PMS_P1;PMS_P2;Temp;Humidity;BMP_temperature;BMP_pressure;BME280_temperature;BME280_humidity;BME280_pressure;Samples;Min_cycle;Max_cycle;Signal;HPM_P1;HPM_P2
2022/08/05 00:01:19;;;;;;;5.53;3.65;;;;;;;;;;4899843;29;20084;-45
2022/08/05 00:03:45;;;;;;;9.73;3.50;;;;;;;;;;4899986;29;20668;-45
2022/08/05 00:06:10;;;;;;;9.38;3.97;;;;;;;;;;4899826;29;20035;-39
2022/08/05 00:08:36;;;;;;;3.97;3.40;;;;;;;;;;4898605;29;20025;-40
2022/08/05 00:11:08;;;;;;;5.60;4.10;;;;;;;;;;4899740;29;20033;-40
2022/08/05 00:13:35;;;;;;;4.43;3.50;;;;;;;;;;4899408;29;20056;-48
2022/08/05 00:16:02;;;;;;;5.20;3.80;;;;;;;;;;4899875;29;20120;-40
2022/08/05 00:18:27;;;;;;;8.25;3.80;;;;;;;;;;4899892;29;20033;-43
2022/08/05 00:20:53;;;;;;;4.63;3.45;;;;;;;;;;4899885;29;20492;-45
2022/08/05 00:23:18;;;;;;;4.68;4.13;;;;;;;;;;4899442;29;20115;-42
2022/08/05 00:25:44;;;;;;;6.90;3.60;;;;;;;;;;4899453;29;20101;-42
2022/08/05 00:28:09;;;;;;;6.25;3.83;;;;;;;;;;4899433;29;20021;-48
2022/08/05 00:30:35;;;;;;;5.38;3.40;;;;;;;;;;4899547;29;20028;-45
2022/08/05 00:33:00;;;;;;;4.93;3.38;;;;;;;;;;4899561;29;20035;-42
2022/08/05 00:35:25;;;;;;;6.05;3.42;;;;;;;;;;4898333;29;20021;-43
2022/08/05 00:37:51;;;;;;;6.15;3.35;;;;;;;;;;4899535;29;20394;-44
2022/08/05 00:40:17;;;;;;;6.88;3.50;;;;;;;;;;4899532;29;20064;-41
2022/08/05 00:42:43;;;;;;;8.23;3.53;;;;;;;;;;4899211;29;20035;-40
2022/08/05 00:45:09;;;;;;;4.53;3.92;;;;;;;;;;4899251;29;20389;-42
2022/08/05 00:47:35;;;;;;;6.80;3.60;;;;;;;;;;4897729;29;20516;-41
2022/08/05 00:50:00;;;;;;;3.95;3.50;;;;;;;;;;4898951;29;20069;-43
2022/08/05 00:52:26;;;;;;;7.18;3.50;;;;;;;;;;4898912;29;20056;-41
2022/08/05 00:54:51;;;;;;;4.68;3.70;;;;;;;;;;4899325;29;20029;-43
2022/08/05 00:57:17;;;;;;;8.75;3.72;;;;;;;;;;4898867;29;20028;-44
2022/08/05 00:59:42;;;;;;;11.75;3.63;;;;;;;;;;4898103;29;20112;-49
2022/08/05 01:02:08;;;;;;;5.82;3.40;;;;;;;;;;4898637;29;20032;-42
2022/08/05 01:04:34;;;;;;;6.43;3.42;;;;;;;;;;4898899;29;20032;-45
2022/08/05 01:06:59;;;;;;;7.07;3.20;;;;;;;;;;4899019;29;20089;-43
2022/08/05 01:09:25;;;;;;;4.00;3.30;;;;;;;;;;4899033;29;20031;-41
2022/08/05 01:11:57;;;;;;;7.68;3.53;;;;;;;;;;4898679;29;20031;-41
2022/08/05 01:14:25;;;;;;;9.70;4.38;;;;;;;;;;4899013;29;20027;-41
2022/08/05 01:17:39;;;;;;;11.95;4.22;;;;;;;;;;4898492;29;20043;-41
2022/08/05 01:20:22;;;;;;;6.38;3.78;;;;;;;;;;4868905;29;20481;-41
2022/08/05 01:23:22;;;;;;;6.95;3.80;;;;;;;;;;4898474;29;20478;-41
2022/08/05 01:26:09;;;;;;;7.37;3.80;;;;;;;;;;4876567;29;20119;-48
2022/08/05 01:28:41;;;;;;;4.03;3.63;;;;;;;;;;4898377;29;20815;-42
2022/08/05 01:31:26;;;;;;;9.05;4.10;;;;;;;;;;4898359;29;20029;-41
2022/08/05 01:34:24;;;;;;;9.40;4.00;;;;;;;;;;4898359;29;20032;-54
2022/08/05 01:36:54;;;;;;;9.60;4.00;;;;;;;;;;4889523;29;20528;-44
2022/08/05 01:39:22;;;;;;;5.25;4.07;;;;;;;;;;4898165;29;20076;-46
2022/08/05 01:41:50;;;;;;;11.05;4.32;;;;;;;;;;4898337;29;20055;-41
2022/08/05 01:44:17;;;;;;;4.80;3.50;;;;;;;;;;4898089;29;20024;-58
2022/08/05 01:46:43;;;;;;;7.70;3.40;;;;;;;;;;4898301;29;20025;-45
2022/08/05 01:49:11;;;;;;;5.03;3.72;;;;;;;;;;4896823;29;20477;-44
2022/08/05 01:51:38;;;;;;;8.27;4.15;;;;;;;;;;4896786;29;20049;-41
2022/08/05 01:54:07;;;;;;;6.78;4.25;;;;;;;;;;4898201;29;20053;-50
2022/08/05 01:56:38;;;;;;;3.97;3.60;;;;;;;;;;4896635;29;20033;-44
2022/08/05 01:59:06;;;;;;;5.72;3.72;;;;;;;;;;4898221;29;20035;-41
2022/08/05 02:01:34;;;;;;;4.18;3.47;;;;;;;;;;4898079;29;20048;-42
2022/08/05 02:04:01;;;;;;;4.65;3.72;;;;;;;;;;4897871;29;20099;-54
2022/08/05 02:06:27;;;;;;;8.50;3.72;;;;;;;;;;4897720;29;20413;-45
2022/08/05 02:08:53;;;;;;;5.18;3.50;;;;;;;;;;4897809;29;20032;-57
2022/08/05 02:11:19;;;;;;;4.85;3.70;;;;;;;;;;4898006;29;20478;-45
2022/08/05 02:14:04;;;;;;;4.70;3.70;;;;;;;;;;4897680;29;20120;-46
2022/08/05 02:16:35;;;;;;;4.75;3.53;;;;;;;;;;4897849;29;20119;-41
2022/08/05 02:19:33;;;;;;;4.25;3.83;;;;;;;;;;4896481;29;20032;-41
2022/08/05 02:22:11;;;;;;;7.25;3.90;;;;;;;;;;4888969;29;20052;-41
2022/08/05 02:24:39;;;;;;;4.20;3.80;;;;;;;;;;4897851;29;20130;-41
2022/08/05 02:27:09;;;;;;;5.65;3.65;;;;;;;;;;4896602;29;20067;-41
2022/08/05 02:29:35;;;;;;;5.97;4.28;;;;;;;;;;4896244;29;20093;-41
2022/08/05 02:32:02;;;;;;;7.38;4.40;;;;;;;;;;4897727;29;20029;-43
2022/08/05 02:34:31;;;;;;;8.27;4.47;;;;;;;;;;4897738;29;20035;-42
2022/08/05 02:37:00;;;;;;;5.75;3.90;;;;;;;;;;4897300;29;20036;-40
2022/08/05 02:39:28;;;;;;;5.50;4.18;;;;;;;;;;4897451;29;20474;-42
2022/08/05 02:41:55;;;;;;;5.03;4.10;;;;;;;;;;4897659;29;20029;-41
2022/08/05 02:44:23;;;;;;;6.40;4.10;;;;;;;;;;4897435;29;20043;-41
2022/08/05 02:46:50;;;;;;;4.47;4.07;;;;;;;;;;4897341;29;20024;-41
2022/08/05 02:49:16;;;;;;;7.60;4.03;;;;;;;;;;4911806;29;20037;-41
2022/08/05 02:51:43;;;;;;;5.30;3.80;;;;;;;;;;4897206;29;20091;-41
2022/08/05 02:54:12;;;;;;;4.50;3.95;;;;;;;;;;4897204;29;20037;-41
2022/08/05 02:56:39;;;;;;;7.82;4.25;;;;;;;;;;4897166;29;20037;-42
2022/08/05 02:59:05;;;;;;;7.65;4.00;;;;;;;;;;4897528;29;20481;-42
2022/08/05 03:01:33;;;;;;;4.88;3.75;;;;;;;;;;4897252;29;20020;-41
2022/08/05 03:04:04;;;;;;;6.28;4.20;;;;;;;;;;4897475;29;20397;-41
2022/08/05 03:06:29;;;;;;;;;;;;;;;;;;4897843;29;20359;-43
2022/08/05 03:08:55;;;;;;;10.02;4.32;;;;;;;;;;4897347;29;19923;-42
2022/08/05 03:11:24;;;;;;;5.18;3.95;;;;;;;;;;4896200;29;20438;-43
2022/08/05 03:13:50;;;;;;;7.55;4.15;;;;;;;;;;4897137;29;20470;-41
2022/08/05 03:16:16;;;;;;;7.05;4.68;;;;;;;;;;4897165;29;20052;-44
2022/08/05 03:18:41;;;;;;;8.23;4.90;;;;;;;;;;4897318;29;20478;-40
2022/08/05 03:21:08;;;;;;;5.78;4.70;;;;;;;;;;4897026;29;20149;-40
2022/08/05 03:23:34;;;;;;;9.70;5.20;;;;;;;;;;4897010;29;20486;-41
2022/08/05 03:26:01;;;;;;;6.97;4.88;;;;;;;;;;4897013;29;20029;-50
2022/08/05 03:28:28;;;;;;;10.45;5.57;;;;;;;;;;4897053;29;20040;-51
2022/08/05 03:30:55;;;;;;;10.00;4.65;;;;;;;;;;4897249;29;20111;-43
2022/08/05 03:33:20;;;;;;;24.27;5.05;;;;;;;;;;4897242;29;20032;-41
2022/08/05 03:35:47;;;;;;;28.70;5.22;;;;;;;;;;4896856;29;20033;-43
2022/08/05 03:38:13;;;;;;;23.50;4.85;;;;;;;;;;4896863;29;20033;-40
2022/08/05 03:40:40;;;;;;;27.30;5.72;;;;;;;;;;4896902;29;20477;-41
2022/08/05 03:43:05;;;;;;;48.03;6.68;;;;;;;;;;4897134;29;20123;-43
2022/08/05 03:45:30;;;;;;;27.17;6.35;;;;;;;;;;4896801;29;20116;-41
2022/08/05 03:47:56;;;;;;;20.42;5.38;;;;;;;;;;4897152;29;20029;-41
2022/08/05 03:50:21;;;;;;;16.50;5.07;;;;;;;;;;4900388;29;20039;-40
2022/08/05 03:53:07;;;;;;;29.15;5.45;;;;;;;;;;4900058;29;20449;-40
2022/08/05 03:55:36;;;;;;;16.50;5.18;;;;;;;;;;4900362;29;20033;-42
2022/08/05 03:58:04;;;;;;;28.73;5.25;;;;;;;;;;4900073;29;20032;-48
2022/08/05 04:00:31;;;;;;;33.25;5.85;;;;;;;;;;4900041;29;20028;-50
2022/08/05 04:03:00;;;;;;;19.60;5.40;;;;;;;;;;4899997;29;20033;-43
2022/08/05 04:05:29;;;;;;;14.35;4.85;;;;;;;;;;4900235;29;20037;-52
2022/08/05 04:07:55;;;;;;;25.02;5.53;;;;;;;;;;4899841;29;20060;-41
2022/08/05 04:10:21;;;;;;;11.15;4.75;;;;;;;;;;4899835;29;20075;-50
2022/08/05 04:12:46;;;;;;;11.07;4.05;;;;;;;;;;4899721;29;20032;-43
2022/08/05 04:15:12;;;;;;;12.57;4.20;;;;;;;;;;4900018;29;20033;-51
2022/08/05 04:17:37;;;;;;;10.90;4.40;;;;;;;;;;4899692;29;20458;-41
2022/08/05 04:20:03;;;;;;;10.20;4.45;;;;;;;;;;4899638;29;20037;-42
2022/08/05 04:22:29;;;;;;;9.60;4.32;;;;;;;;;;4899909;29;20028;-55
2022/08/05 04:24:54;;;;;;;7.03;4.32;;;;;;;;;;4899590;29;20478;-44
2022/08/05 04:27:20;;;;;;;12.40;4.50;;;;;;;;;;4898412;29;20123;-49
2022/08/05 04:29:45;;;;;;;14.75;4.90;;;;;;;;;;4899758;29;20466;-40
2022/08/05 04:32:11;;;;;;;20.88;4.70;;;;;;;;;;4899748;29;20032;-44
2022/08/05 04:34:37;;;;;;;14.48;5.00;;;;;;;;;;4898166;29;20025;-50
2022/08/05 04:37:03;;;;;;;10.90;4.40;;;;;;;;;;4899266;29;20079;-48
2022/08/05 04:39:28;;;;;;;20.83;4.55;;;;;;;;;;4899304;29;20032;-50
2022/08/05 04:41:54;;;;;;;9.23;4.10;;;;;;;;;;4899224;29;20523;-49
2022/08/05 04:44:19;;;;;;;13.13;4.82;;;;;;;;;;4899233;29;20029;-41
2022/08/05 04:46:45;;;;;;;8.15;3.88;;;;;;;;;;4899348;29;20033;-43
2022/08/05 04:49:10;;;;;;;7.78;4.53;;;;;;;;;;4899414;29;20028;-57
2022/08/05 04:51:35;;;;;;;8.93;4.30;;;;;;;;;;4899107;29;20057;-50
2022/08/05 04:54:01;;;;;;;8.02;4.25;;;;;;;;;;4899318;29;20032;-58
2022/08/05 04:56:26;;;;;;;4.90;3.80;;;;;;;;;;4897711;29;20363;-41
2022/08/05 04:58:52;;;;;;;8.48;3.90;;;;;;;;;;4899223;29;20065;-43
2022/08/05 05:01:17;;;;;;;9.45;3.90;;;;;;;;;;4898102;29;20060;-53
2022/08/05 05:03:43;;;;;;;7.28;3.50;;;;;;;;;;4899178;29;20506;-45
2022/08/05 05:06:09;;;;;;;6.97;3.50;;;;;;;;;;4897666;29;20434;-46
2022/08/05 05:08:38;;;;;;;4.15;3.50;;;;;;;;;;4898798;29;20036;-48
2022/08/05 05:11:04;;;;;;;8.38;3.92;;;;;;;;;;4897578;29;20032;-50
2022/08/05 05:13:31;;;;;;;6.22;3.38;;;;;;;;;;4897495;29;20063;-42
2022/08/05 05:15:56;;;;;;;5.75;3.00;;;;;;;;;;4898583;29;20035;-42
2022/08/05 05:18:22;;;;;;;9.15;3.53;;;;;;;;;;4898556;29;20025;-46
2022/08/05 05:20:47;;;;;;;11.63;3.50;;;;;;;;;;4898492;29;20059;-43
2022/08/05 05:23:13;;;;;;;7.13;3.63;;;;;;;;;;4898810;29;20021;-44
2022/08/05 05:25:43;;;;;;;5.40;3.00;;;;;;;;;;4898414;29;20025;-46
2022/08/05 05:28:09;;;;;;;7.22;3.58;;;;;;;;;;4898415;29;20033;-46
2022/08/05 05:30:36;;;;;;;7.80;3.00;;;;;;;;;;4898677;29;20036;-54
2022/08/05 05:33:04;;;;;;;6.07;3.10;;;;;;;;;;4898262;29;20446;-45
2022/08/05 05:35:30;;;;;;;6.78;3.20;;;;;;;;;;4898177;29;20031;-50
2022/08/05 05:38:01;;;;;;;3.00;2.60;;;;;;;;;;4898515;29;20028;-51
2022/08/05 05:40:28;;;;;;;10.32;3.10;;;;;;;;;;4898520;29;20100;-47
2022/08/05 05:42:54;;;;;;;5.82;2.58;;;;;;;;;;4898481;29;20064;-48
2022/08/05 05:45:20;;;;;;;5.68;3.08;;;;;;;;;;4898458;29;20062;-42
2022/08/05 05:47:46;;;;;;;12.18;3.08;;;;;;;;;;4898466;29;20083;-46
2022/08/05 05:50:14;;;;;;;19.58;3.22;;;;;;;;;;4898028;29;20493;-48
2022/08/05 05:52:40;;;;;;;5.05;2.78;;;;;;;;;;4897840;29;20498;-50
2022/08/05 05:55:08;;;;;;;6.82;2.67;;;;;;;;;;4897820;29;20087;-44
2022/08/05 05:57:37;;;;;;;12.80;2.72;;;;;;;;;;4897971;29;20040;-57
2022/08/05 06:00:07;;;;;;;;;;;;;;;;;;4898556;29;20039;-49
2022/08/05 06:02:32;;;;;;;;;;;;;;;;;;4898214;29;19912;-46
2022/08/05 06:04:57;;;;;;;3.53;3.07;;;;;;;;;;4897986;29;20292;-45
2022/08/05 06:07:23;;;;;;;7.63;3.80;;;;;;;;;;4897905;29;20775;-49
2022/08/05 06:09:48;;;;;;;7.40;3.15;;;;;;;;;;4897944;29;20473;-55
2022/08/05 06:12:14;;;;;;;9.15;2.95;;;;;;;;;;4897572;29;20486;-47
2022/08/05 06:14:41;;;;;;;5.15;3.05;;;;;;;;;;4897654;29;20084;-50
2022/08/05 06:17:06;;;;;;;6.18;3.10;;;;;;;;;;4897711;29;20058;-54
2022/08/05 06:19:32;;;;;;;6.10;3.10;;;;;;;;;;4897537;29;20116;-48
2022/08/05 06:21:57;;;;;;;7.63;3.60;;;;;;;;;;4897766;29;20056;-43
2022/08/05 06:24:22;;;;;;;7.88;3.47;;;;;;;;;;4897474;29;20033;-47
2022/08/05 06:26:48;;;;;;;5.55;2.97;;;;;;;;;;4897745;29;20032;-53
2022/08/05 06:29:13;;;;;;;6.88;2.80;;;;;;;;;;4897559;29;20036;-53
2022/08/05 06:31:39;;;;;;;5.80;3.05;;;;;;;;;;4897604;29;20032;-47
2022/08/05 06:34:04;;;;;;;2.78;2.58;;;;;;;;;;4897402;29;20111;-50
2022/08/05 06:36:30;;;;;;;4.70;2.75;;;;;;;;;;4897246;29;20033;-45
2022/08/05 06:38:56;;;;;;;7.63;3.20;;;;;;;;;;4897433;29;20033;-42
2022/08/05 06:41:21;;;;;;;13.55;3.22;;;;;;;;;;4897406;29;20119;-44
2022/08/05 06:43:47;;;;;;;3.40;2.80;;;;;;;;;;4897356;29;20071;-44
2022/08/05 06:46:13;;;;;;;3.83;2.60;;;;;;;;;;4896072;29;20120;-47
2022/08/05 06:48:39;;;;;;;4.97;2.85;;;;;;;;;;4897293;29;20521;-45
2022/08/05 06:51:05;;;;;;;5.63;2.80;;;;;;;;;;4897077;29;20060;-48
2022/08/05 06:53:31;;;;;;;3.17;2.42;;;;;;;;;;4897501;29;20081;-47
2022/08/05 06:55:58;;;;;;;4.55;2.92;;;;;;;;;;4896990;29;20039;-55
2022/08/05 06:58:23;;;;;;;7.65;2.60;;;;;;;;;;4897441;29;20024;-52
2022/08/05 07:00:50;;;;;;;10.73;2.90;;;;;;;;;;4897391;29;20032;-48
2022/08/05 07:03:15;;;;;;;5.10;3.08;;;;;;;;;;4896979;29;20036;-51
2022/08/05 07:05:41;;;;;;;5.57;2.60;;;;;;;;;;4897174;29;20039;-45
2022/08/05 07:08:06;;;;;;;4.32;2.60;;;;;;;;;;4895613;29;20099;-44
2022/08/05 07:10:32;;;;;;;2.88;2.67;;;;;;;;;;4896223;29;20061;-45
2022/08/05 07:18:25;;;;;;;4.07;2.45;;;;;;;;;;4897195;29;20116;-49
2022/08/05 07:20:50;;;;;;;4.68;2.40;;;;;;;;;;4896815;29;20427;-50
2022/08/05 07:23:16;;;;;;;3.30;2.08;;;;;;;;;;4895980;29;20043;-48
2022/08/05 07:25:41;;;;;;;6.38;2.30;;;;;;;;;;4900757;29;20104;-50
2022/08/05 07:28:07;;;;;;;4.55;1.75;;;;;;;;;;4899381;29;20390;-46
2022/08/05 07:30:34;;;;;;;2.90;2.60;;;;;;;;;;4901576;29;20040;-46
2022/08/05 07:33:01;;;;;;;5.43;2.45;;;;;;;;;;4902657;29;20028;-48
2022/08/05 07:35:27;;;;;;;4.50;2.40;;;;;;;;;;4913796;29;20036;-47
2022/08/05 07:37:52;;;;;;;2.50;2.30;;;;;;;;;;4918496;29;20507;-46
2022/08/05 07:40:17;;;;;;;2.65;2.25;;;;;;;;;;4918921;29;20036;-44
2022/08/05 07:42:43;;;;;;;3.20;2.17;;;;;;;;;;4919111;29;20032;-45
2022/08/05 07:45:09;;;;;;;3.85;2.20;;;;;;;;;;4919356;29;20112;-42
2022/08/05 07:47:34;;;;;;;5.97;2.65;;;;;;;;;;4900619;29;20064;-52
2022/08/05 07:50:00;;;;;;;6.30;2.33;;;;;;;;;;4917843;29;20063;-43
2022/08/05 07:52:25;;;;;;;2.80;2.38;;;;;;;;;;4917269;29;20111;-45
2022/08/05 07:54:51;;;;;;;6.55;2.63;;;;;;;;;;4916783;29;20035;-47
2022/08/05 07:57:18;;;;;;;4.75;2.20;;;;;;;;;;4916396;29;20044;-47
2022/08/05 07:59:43;;;;;;;3.55;2.20;;;;;;;;;;4916827;29;20091;-46
2022/08/05 08:02:09;;;;;;;5.18;2.60;;;;;;;;;;4917166;29;20032;-46
2022/08/05 08:04:35;;;;;;;3.95;2.35;;;;;;;;;;4917297;29;20111;-53
2022/08/05 08:07:00;;;;;;;2.35;2.15;;;;;;;;;;4917152;29;20479;-46
2022/08/05 08:09:26;;;;;;;3.75;2.28;;;;;;;;;;4917063;29;20044;-44
2022/08/05 08:11:52;;;;;;;6.32;2.25;;;;;;;;;;4917216;29;20115;-49
2022/08/05 08:14:17;;;;;;;3.72;2.30;;;;;;;;;;4917053;29;20389;-47
2022/08/05 08:16:43;;;;;;;4.95;2.30;;;;;;;;;;4916850;29;20043;-48
2022/08/05 08:19:08;;;;;;;2.72;2.00;;;;;;;;;;4917042;29;20036;-49
2022/08/05 08:21:34;;;;;;;8.68;2.58;;;;;;;;;;4917253;29;20040;-50
2022/08/05 08:23:59;;;;;;;4.95;1.90;;;;;;;;;;4916967;29;20028;-47
2022/08/05 08:26:25;;;;;;;2.15;1.95;;;;;;;;;;4916913;29;20048;-50
2022/08/05 08:28:50;;;;;;;5.53;2.30;;;;;;;;;;4917187;29;20032;-47
2022/08/05 08:31:17;;;;;;;3.85;2.13;;;;;;;;;;4916845;29;20032;-46
2022/08/05 08:33:43;;;;;;;5.25;2.55;;;;;;;;;;4916700;29;20032;-43
2022/08/05 08:36:09;;;;;;;4.68;2.08;;;;;;;;;;4916466;29;20071;-49
2022/08/05 08:38:34;;;;;;;3.33;2.08;;;;;;;;;;4916510;29;20036;-45
2022/08/05 08:41:04;;;;;;;2.10;1.90;;;;;;;;;;4915617;29;20043;-44
2022/08/05 08:43:31;;;;;;;3.05;2.10;;;;;;;;;;4916356;29;20500;-47
2022/08/05 08:45:57;;;;;;;2.55;1.90;;;;;;;;;;4916602;29;20036;-46
2022/08/05 08:48:24;;;;;;;2.85;2.00;;;;;;;;;;4916646;29;20028;-51
2022/08/05 08:50:50;;;;;;;3.47;1.92;;;;;;;;;;4916204;29;20056;-46
2022/08/05 08:53:16;;;;;;;2.67;2.28;;;;;;;;;;4916567;29;20039;-51
2022/08/05 08:55:41;;;;;;;4.55;2.00;;;;;;;;;;4916555;29;20734;-44
2022/08/05 08:58:08;;;;;;;3.58;1.95;;;;;;;;;;4916272;29;20028;-51
2022/08/05 09:00:34;;;;;;;3.65;2.00;;;;;;;;;;4916478;29;20032;-48
2022/08/05 09:03:00;;;;;;;3.00;1.98;;;;;;;;;;4916245;29;20031;-50
2022/08/05 09:05:26;;;;;;;4.40;2.08;;;;;;;;;;4915867;29;20059;-47
2022/08/05 09:07:52;;;;;;;2.20;2.00;;;;;;;;;;4916196;29;20066;-46
2022/08/05 09:10:19;;;;;;;5.63;1.95;;;;;;;;;;4916102;29;20068;-50
2022/08/05 09:12:45;;;;;;;3.42;2.15;;;;;;;;;;4916281;29;20704;-46
2022/08/05 09:15:11;;;;;;;3.30;2.20;;;;;;;;;;4916034;29;20035;-48
2022/08/05 09:17:36;;;;;;;1.85;1.75;;;;;;;;;;4916190;29;20086;-46
2022/08/05 09:20:03;;;;;;;3.38;2.20;;;;;;;;;;4914418;29;20032;-52
2022/08/05 09:23:01;;;;;;;3.00;2.10;;;;;;;;;;4915610;29;20028;-50
2022/08/05 09:25:26;;;;;;;4.07;2.00;;;;;;;;;;4915277;29;20268;-45
2022/08/05 09:27:52;;;;;;;3.30;1.95;;;;;;;;;;4915331;29;20548;-46
2022/08/05 09:30:17;;;;;;;2.22;1.90;;;;;;;;;;4913751;29;20214;-45
2022/08/05 09:32:43;;;;;;;2.42;2.15;;;;;;;;;;4914511;29;20020;-51
2022/08/05 09:35:14;;;;;;;6.18;2.47;;;;;;;;;;4914480;29;20389;-48
2022/08/05 09:37:52;;;;;;;2.72;1.90;;;;;;;;;;4914842;29;20027;-47
2022/08/05 09:40:30;;;;;;;2.20;1.90;;;;;;;;;;4915247;29;20035;-47
2022/08/05 09:42:56;;;;;;;6.93;2.00;;;;;;;;;;4915137;29;20028;-51
2022/08/05 09:45:33;;;;;;;3.85;1.90;;;;;;;;;;4913605;29;20367;-48
2022/08/05 09:47:59;;;;;;;5.37;2.00;;;;;;;;;;4913357;29;20063;-48
2022/08/05 09:50:37;;;;;;;2.17;1.92;;;;;;;;;;4915279;29;20067;-45
2022/08/05 09:53:02;;;;;;;7.30;2.38;;;;;;;;;;4915523;29;20545;-44
2022/08/05 09:55:34;;;;;;;2.20;1.90;;;;;;;;;;4915200;29;20196;-50
2022/08/05 09:58:12;;;;;;;3.05;2.10;;;;;;;;;;4915339;29;20091;-47
2022/08/05 10:00:38;;;;;;;2.22;1.85;;;;;;;;;;4915260;29;20043;-50
2022/08/05 10:03:10;;;;;;;3.42;2.08;;;;;;;;;;4913774;29;20040;-44
2022/08/05 10:05:36;;;;;;;2.45;2.10;;;;;;;;;;4914932;29;20028;-50
2022/08/05 10:08:05;;;;;;;1.85;1.75;;;;;;;;;;4915159;29;20036;-51
2022/08/05 10:10:32;;;;;;;3.00;2.10;;;;;;;;;;4913705;29;20028;-45
2022/08/05 10:13:01;;;;;;;3.70;2.08;;;;;;;;;;4914549;29;20067;-43
2022/08/05 10:15:40;;;;;;;2.10;1.90;;;;;;;;;;4915060;29;20032;-43
2022/08/05 10:18:14;;;;;;;4.18;2.30;;;;;;;;;;4915233;29;20084;-49
2022/08/05 10:20:42;;;;;;;2.13;1.92;;;;;;;;;;4915161;29;20035;-47
2022/08/05 10:23:13;;;;;;;3.05;2.10;;;;;;;;;;4914922;29;20060;-48
2022/08/05 10:25:39;;;;;;;3.60;2.10;;;;;;;;;;4914824;29;20064;-48
2022/08/05 10:28:05;;;;;;;4.22;1.80;;;;;;;;;;4913857;29;20438;-45
2022/08/05 10:30:30;;;;;;;2.25;2.10;;;;;;;;;;4914721;29;20036;-50
2022/08/05 10:32:58;;;;;;;3.17;2.33;;;;;;;;;;4914676;29;20130;-49
2022/08/05 10:35:24;;;;;;;4.07;2.03;;;;;;;;;;4914975;29;20028;-45
2022/08/05 10:37:50;;;;;;;5.32;2.25;;;;;;;;;;4915028;29;20421;-46
2022/08/05 10:40:22;;;;;;;8.25;2.40;;;;;;;;;;4913272;29;20059;-45
2022/08/05 10:42:51;;;;;;;7.45;2.40;;;;;;;;;;4914778;29;20031;-43
2022/08/05 10:45:25;;;;;;;2.00;1.90;;;;;;;;;;4914656;29;20036;-48
2022/08/05 10:47:50;;;;;;;3.63;1.98;;;;;;;;;;4914778;29;20040;-45
2022/08/05 10:50:17;;;;;;;2.17;2.08;;;;;;;;;;4914704;29;20537;-45
2022/08/05 10:52:58;;;;;;;2.17;2.00;;;;;;;;;;4928799;29;20048;-45
2022/08/05 10:55:25;;;;;;;7.53;2.67;;;;;;;;;;4914612;29;20063;-44
2022/08/05 10:58:10;;;;;;;4.68;2.50;;;;;;;;;;4915826;29;20040;-47
2022/08/05 11:00:35;;;;;;;2.97;2.10;;;;;;;;;;4918606;29;20036;-48
2022/08/05 11:03:09;;;;;;;4.78;2.33;;;;;;;;;;4918603;29;20036;-48
2022/08/05 11:05:35;;;;;;;3.88;2.38;;;;;;;;;;4916695;29;20032;-44
2022/08/05 11:08:03;;;;;;;2.30;2.10;;;;;;;;;;4917913;29;20047;-50
2022/08/05 11:10:30;;;;;;;4.40;1.98;;;;;;;;;;4918467;29;20396;-46
2022/08/05 11:12:57;;;;;;;7.38;3.85;;;;;;;;;;4918242;29;20042;-45
2022/08/05 11:15:33;;;;;;;3.10;2.03;;;;;;;;;;4918055;29;20028;-50
2022/08/05 11:18:27;;;;;;;2.58;2.30;;;;;;;;;;4918034;29;20047;-47
2022/08/05 11:20:53;;;;;;;5.45;2.30;;;;;;;;;;4917957;29;20025;-45
2022/08/05 11:23:29;;;;;;;4.50;2.50;;;;;;;;;;4918115;29;20036;-48
2022/08/05 11:26:15;;;;;;;2.30;2.10;;;;;;;;;;4918012;29;20163;-47
2022/08/05 11:28:43;;;;;;;3.35;2.30;;;;;;;;;;4918040;29;20060;-53
2022/08/05 11:31:09;;;;;;;2.58;2.20;;;;;;;;;;4918070;29;20036;-59
2022/08/05 11:33:34;;;;;;;2.20;2.00;;;;;;;;;;4917926;29;20032;-48
2022/08/05 11:36:04;;;;;;;6.00;2.80;;;;;;;;;;4917287;29;20119;-44
2022/08/05 11:38:41;;;;;;;2.95;2.35;;;;;;;;;;4917810;29;20036;-48
2022/08/05 11:41:14;;;;;;;2.63;2.35;;;;;;;;;;4917694;29;20032;-50
2022/08/05 11:44:02;;;;;;;10.50;2.78;;;;;;;;;;4917946;29;20036;-56
2022/08/05 11:46:36;;;;;;;3.38;2.38;;;;;;;;;;4917525;29;20437;-54
2022/08/05 11:49:04;;;;;;;2.60;2.20;;;;;;;;;;4917631;29;20036;-46
2022/08/05 11:51:30;;;;;;;3.38;2.20;;;;;;;;;;4917381;29;20148;-50
2022/08/05 11:53:56;;;;;;;3.00;2.42;;;;;;;;;;4915787;29;20536;-47
2022/08/05 11:56:22;;;;;;;2.55;2.20;;;;;;;;;;4917382;29;20044;-44
2022/08/05 11:58:50;;;;;;;4.35;2.17;;;;;;;;;;4917637;29;20020;-48
2022/08/05 12:01:17;;;;;;;2.92;2.17;;;;;;;;;;4916375;29;20507;-48
2022/08/05 12:03:44;;;;;;;2.30;2.13;;;;;;;;;;4916951;29;20028;-46
2022/08/05 12:06:11;;;;;;;2.35;2.00;;;;;;;;;;4917372;29;20032;-43
2022/08/05 12:08:43;;;;;;;2.92;2.17;;;;;;;;;;4917007;29;20032;-42
2022/08/05 12:11:10;;;;;;;2.20;2.10;;;;;;;;;;4915410;29;20071;-44
2022/08/05 12:13:37;;;;;;;3.10;2.35;;;;;;;;;;4917145;29;20079;-44
2022/08/05 12:16:07;;;;;;;4.20;2.20;;;;;;;;;;4917035;29;20032;-44
2022/08/05 12:18:34;;;;;;;3.58;2.88;;;;;;;;;;4915894;29;20036;-41
2022/08/05 12:21:09;;;;;;;5.15;2.58;;;;;;;;;;4916740;29;20163;-55
2022/08/05 12:23:35;;;;;;;2.92;2.50;;;;;;;;;;4917021;29;20028;-47
2022/08/05 12:26:00;;;;;;;2.42;2.22;;;;;;;;;;4917031;29;20039;-54
2022/08/05 12:28:34;;;;;;;4.70;2.30;;;;;;;;;;4916912;29;20514;-43
2022/08/05 12:31:00;;;;;;;2.53;2.33;;;;;;;;;;4916763;29;20043;-44
2022/08/05 12:33:26;;;;;;;2.30;2.10;;;;;;;;;;4916969;29;20381;-43
2022/08/05 12:35:54;;;;;;;6.50;2.22;;;;;;;;;;4916624;29;20481;-52
2022/08/05 12:38:23;;;;;;;2.20;2.00;;;;;;;;;;4916716;29;20043;-47
2022/08/05 12:40:49;;;;;;;;;;;;;;;;;;4917216;29;20028;-47
2022/08/05 12:43:14;;;;;;;2.45;2.25;;;;;;;;;;4916766;29;19919;-48
2022/08/05 12:45:54;;;;;;;3.90;2.42;;;;;;;;;;4916644;29;20378;-54
2022/08/05 12:48:20;;;;;;;5.05;2.15;;;;;;;;;;4916307;29;20036;-43
2022/08/05 12:51:26;;;;;;;3.78;2.33;;;;;;;;;;4916311;29;20036;-47
2022/08/05 12:53:58;;;;;;;3.08;2.40;;;;;;;;;;4868962;29;20455;-51
2022/08/05 12:56:24;;;;;;;4.22;2.38;;;;;;;;;;4857640;29;20121;-43
2022/08/05 12:59:11;;;;;;;6.32;2.40;;;;;;;;;;4868585;29;20493;-45
2022/08/05 13:01:37;;;;;;;3.75;2.40;;;;;;;;;;4878776;29;20036;-52
2022/08/05 13:04:04;;;;;;;2.45;2.00;;;;;;;;;;4905360;29;20028;-46
2022/08/05 13:06:29;;;;;;;4.22;2.13;;;;;;;;;;4914590;29;20062;-47
2022/08/05 13:08:55;;;;;;;3.75;2.80;;;;;;;;;;4916067;29;20469;-48
2022/08/05 13:11:28;;;;;;;6.30;2.28;;;;;;;;;;4914858;29;20040;-47
2022/08/05 13:13:57;;;;;;;5.38;2.50;;;;;;;;;;4916341;29;20031;-43
2022/08/05 13:16:23;;;;;;;4.60;2.50;;;;;;;;;;4916176;29;20123;-44
2022/08/05 13:18:53;;;;;;;3.65;2.47;;;;;;;;;;4916159;29;20123;-46
2022/08/05 13:21:18;;;;;;;3.10;2.78;;;;;;;;;;4915020;29;20043;-47
2022/08/05 13:23:44;;;;;;;2.42;2.22;;;;;;;;;;4907046;29;20036;-51
2022/08/05 13:26:09;;;;;;;2.85;2.40;;;;;;;;;;4910884;29;20043;-44
2022/08/05 13:28:34;;;;;;;5.75;2.10;;;;;;;;;;4915594;29;20058;-44
2022/08/05 13:31:00;;;;;;;3.13;2.35;;;;;;;;;;4907606;29;20067;-42
2022/08/05 13:33:25;;;;;;;3.50;2.30;;;;;;;;;;4906767;29;20066;-43
2022/08/05 13:35:51;;;;;;;5.10;2.75;;;;;;;;;;4905056;29;20024;-50
2022/08/05 13:38:16;;;;;;;2.97;2.50;;;;;;;;;;4905577;29;20028;-48
2022/08/05 13:40:41;;;;;;;2.47;2.28;;;;;;;;;;4914794;29;20028;-46
2022/08/05 13:43:07;;;;;;;2.63;2.25;;;;;;;;;;4915189;29;20537;-45
2022/08/05 13:45:32;;;;;;;3.65;2.42;;;;;;;;;;4915620;29;20036;-54
2022/08/05 13:47:58;;;;;;;3.33;2.20;;;;;;;;;;4909526;29;20032;-44
2022/08/05 13:50:23;;;;;;;3.63;2.00;;;;;;;;;;4904762;29;20059;-44
2022/08/05 13:52:57;;;;;;;2.42;1.80;;;;;;;;;;5079459;27;20428;-45
2022/08/05 13:55:23;;;;;;;2.28;2.08;;;;;;;;;;5076823;28;20056;-42
2022/08/05 13:57:49;;;;;;;3.33;2.17;;;;;;;;;;5072189;28;20385;-44
2022/08/05 14:00:14;;;;;;;1.90;1.80;;;;;;;;;;5067925;28;20025;-43
2022/08/05 14:02:40;;;;;;;2.40;2.20;;;;;;;;;;5049995;28;20067;-48
2022/08/05 14:05:12;;;;;;;3.03;2.47;;;;;;;;;;5068194;28;20025;-46
2022/08/05 14:07:40;;;;;;;2.47;2.28;;;;;;;;;;5050722;28;20029;-58
2022/08/05 14:10:06;;;;;;;2.40;2.20;;;;;;;;;;5070541;28;20032;-46
2022/08/05 14:12:32;;;;;;;3.00;2.13;;;;;;;;;;5057147;28;20039;-52
2022/08/05 14:14:57;;;;;;;5.65;2.60;;;;;;;;;;5077298;28;20090;-42
2022/08/05 14:17:25;;;;;;;3.28;2.40;;;;;;;;;;5075434;28;20059;-43
2022/08/05 14:19:51;;;;;;;5.43;2.50;;;;;;;;;;5076641;28;20056;-42
2022/08/05 14:22:17;;;;;;;2.97;2.28;;;;;;;;;;5072656;28;20036;-47
2022/08/05 14:24:42;;;;;;;4.00;2.45;;;;;;;;;;5067715;28;20029;-46
2022/08/05 14:27:08;;;;;;;6.38;2.30;;;;;;;;;;5067133;28;20066;-42
2022/08/05 14:29:33;;;;;;;3.80;2.17;;;;;;;;;;5067661;28;20461;-47
2022/08/05 14:31:59;;;;;;;3.85;2.10;;;;;;;;;;5069897;28;20089;-46
2022/08/05 14:34:24;;;;;;;2.30;2.10;;;;;;;;;;5077264;28;20025;-44
2022/08/05 14:36:50;;;;;;;4.82;2.17;;;;;;;;;;5075661;28;20036;-49
2022/08/05 14:39:15;;;;;;;3.88;2.30;;;;;;;;;;5076343;28;20028;-46
2022/08/05 14:41:41;;;;;;;2.55;2.30;;;;;;;;;;5076747;28;20027;-42
2022/08/05 14:44:06;;;;;;;2.40;2.20;;;;;;;;;;5080240;28;20488;-48
2022/08/05 14:46:32;;;;;;;3.08;2.38;;;;;;;;;;5087368;28;20032;-45
2022/08/05 14:48:59;;;;;;;6.47;2.40;;;;;;;;;;5087147;28;20032;-48
2022/08/05 14:51:25;;;;;;;7.63;2.30;;;;;;;;;;5086932;28;20052;-46
2022/08/05 14:53:51;;;;;;;2.35;2.15;;;;;;;;;;5087534;28;20032;-58